sensor_id;sensor_type;location;lat;lon;timestamp;pressure;altitude;pressure_sealevel;temperature;humidity
57574;BME280;68988;49.000;21.242;2023-04-06T00:00:45;98717.00;;;24.07;32.48
57574;BME280;68988;49.000;21.242;2023-04-06T00:03:10;98711.91;;;24.05;32.44
57574;BME280;68988;49.000;21.242;2023-04-06T00:05:36;98710.84;;;24.06;32.31
57574;BME280;68988;49.000;21.242;2023-04-06T00:08:01;98711.91;;;24.05;32.41
57574;BME280;68988;49.000;21.242;2023-04-06T00:10:27;98705.75;;;24.05;32.46
57574;BME280;68988;49.000;21.242;2023-04-06T00:12:52;98711.38;;;24.03;32.41
57574;BME280;68988;49.000;21.242;2023-04-06T00:15:19;98703.31;;;24.03;32.29
57574;BME280;68988;49.000;21.242;2023-04-06T00:17:44;98700.66;;;23.98;32.34
57574;BME280;68988;49.000;21.242;2023-04-06T00:20:10;98699.59;;;24.04;32.24
57574;BME280;68988;49.000;21.242;2023-04-06T00:22:36;98702.81;;;24.01;32.45
57574;BME280;68988;49.000;21.242;2023-04-06T00:25:01;98697.97;;;24.03;32.29
57574;BME280;68988;49.000;21.242;2023-04-06T00:27:26;98689.13;;;24.03;32.20
57574;BME280;68988;49.000;21.242;2023-04-06T00:29:52;98683.25;;;24.01;32.31
57574;BME280;68988;49.000;21.242;2023-04-06T00:32:17;98684.59;;;23.98;32.50
57574;BME280;68988;49.000;21.242;2023-04-06T00:34:43;98675.75;;;23.98;32.37
57574;BME280;68988;49.000;21.242;2023-04-06T00:37:08;98680.84;;;23.99;32.43
57574;BME280;68988;49.000;21.242;2023-04-06T00:39:33;98671.72;;;24.00;32.32
57574;BME280;68988;49.000;21.242;2023-04-06T00:41:59;98673.88;;;23.98;32.13
57574;BME280;68988;49.000;21.242;2023-04-06T00:44:25;98675.47;;;23.99;32.15
57574;BME280;68988;49.000;21.242;2023-04-06T00:46:50;98670.66;;;23.96;32.31
57574;BME280;68988;49.000;21.242;2023-04-06T00:49:16;98672.25;;;23.97;32.33
57574;BME280;68988;49.000;21.242;2023-04-06T00:51:42;98669.56;;;23.97;32.38
57574;BME280;68988;49.000;21.242;2023-04-06T00:54:07;98668.50;;;23.98;32.09
57574;BME280;68988;49.000;21.242;2023-04-06T00:56:33;98663.69;;;23.95;32.27
57574;BME280;68988;49.000;21.242;2023-04-06T00:58:58;98666.38;;;23.95;32.14
57574;BME280;68988;49.000;21.242;2023-04-06T01:01:24;98663.41;;;23.97;32.15
57574;BME280;68988;49.000;21.242;2023-04-06T01:03:50;98659.13;;;23.95;32.31
57574;BME280;68988;49.000;21.242;2023-04-06T01:06:16;98666.63;;;23.93;32.28
57574;BME280;68988;49.000;21.242;2023-04-06T01:08:41;98665.31;;;23.96;32.22
57574;BME280;68988;49.000;21.242;2023-04-06T01:11:07;98663.16;;;23.93;32.33
57574;BME280;68988;49.000;21.242;2023-04-06T01:13:32;98663.69;;;23.95;32.35
57574;BME280;68988;49.000;21.242;2023-04-06T01:15:58;98667.44;;;23.94;32.29
57574;BME280;68988;49.000;21.242;2023-04-06T01:18:27;98661.53;;;23.97;32.18
57574;BME280;68988;49.000;21.242;2023-04-06T01:20:53;98667.69;;;23.92;32.16
57574;BME280;68988;49.000;21.242;2023-04-06T01:23:18;98655.66;;;23.90;32.19
57574;BME280;68988;49.000;21.242;2023-04-06T01:25:43;98658.88;;;23.92;32.33
57574;BME280;68988;49.000;21.242;2023-04-06T01:28:09;98654.59;;;23.96;32.21
57574;BME280;68988;49.000;21.242;2023-04-06T01:30:34;98662.91;;;23.94;32.27
57574;BME280;68988;49.000;21.242;2023-04-06T01:33:00;98649.50;;;23.94;32.21
57574;BME280;68988;49.000;21.242;2023-04-06T01:35:26;98645.47;;;23.97;32.09
57574;BME280;68988;49.000;21.242;2023-04-06T01:37:52;98641.19;;;23.91;32.05
57574;BME280;68988;49.000;21.242;2023-04-06T01:40:17;98638.22;;;23.92;32.22
57574;BME280;68988;49.000;21.242;2023-04-06T01:42:43;98639.06;;;23.93;32.10
57574;BME280;68988;49.000;21.242;2023-04-06T01:45:08;98635.81;;;23.91;32.14
57574;BME280;68988;49.000;21.242;2023-04-06T01:47:34;98632.34;;;23.90;32.29
57574;BME280;68988;49.000;21.242;2023-04-06T01:50:00;98636.91;;;23.95;32.07
57574;BME280;68988;49.000;21.242;2023-04-06T01:52:25;98634.75;;;23.92;31.99
57574;BME280;68988;49.000;21.242;2023-04-06T01:54:50;98625.09;;;23.91;32.46
57574;BME280;68988;49.000;21.242;2023-04-06T01:57:16;98630.47;;;23.91;32.05
57574;BME280;68988;49.000;21.242;2023-04-06T01:59:41;98630.47;;;23.91;32.07
57574;BME280;68988;49.000;21.242;2023-04-06T02:02:07;98627.78;;;23.91;32.11
57574;BME280;68988;49.000;21.242;2023-04-06T02:04:32;98622.44;;;23.91;32.22
57574;BME280;68988;49.000;21.242;2023-04-06T02:06:57;98618.44;;;23.88;32.09
57574;BME280;68988;49.000;21.242;2023-04-06T02:09:23;98618.97;;;23.90;32.20
57574;BME280;68988;49.000;21.242;2023-04-06T02:11:48;98619.22;;;23.89;32.19
57574;BME280;68988;49.000;21.242;2023-04-06T02:14:13;98613.59;;;23.90;32.02
57574;BME280;68988;49.000;21.242;2023-04-06T02:16:40;98614.66;;;23.89;32.22
57574;BME280;68988;49.000;21.242;2023-04-06T02:19:05;98621.91;;;23.89;32.05
57574;BME280;68988;49.000;21.242;2023-04-06T02:21:31;98607.97;;;23.87;32.22
57574;BME280;68988;49.000;21.242;2023-04-06T02:23:56;98602.63;;;23.87;32.11
57574;BME280;68988;49.000;21.242;2023-04-06T02:26:21;98604.22;;;23.88;32.11
57574;BME280;68988;49.000;21.242;2023-04-06T02:28:47;98606.09;;;23.87;32.12
57574;BME280;68988;49.000;21.242;2023-04-06T02:31:12;98597.78;;;23.84;32.11
57574;BME280;68988;49.000;21.242;2023-04-06T02:33:39;98602.31;;;23.83;32.25
57574;BME280;68988;49.000;21.242;2023-04-06T02:36:05;98598.84;;;23.83;32.17
57574;BME280;68988;49.000;21.242;2023-04-06T02:38:31;98595.38;;;23.87;31.98
57574;BME280;68988;49.000;21.242;2023-04-06T02:40:56;98598.59;;;23.84;32.04
57574;BME280;68988;49.000;21.242;2023-04-06T02:43:21;98592.19;;;23.85;32.16
57574;BME280;68988;49.000;21.242;2023-04-06T02:45:47;98588.69;;;23.85;32.18
57574;BME280;68988;49.000;21.242;2023-04-06T02:48:12;98590.31;;;23.86;31.99
57574;BME280;68988;49.000;21.242;2023-04-06T02:50:37;98588.91;;;23.83;31.89
57574;BME280;68988;49.000;21.242;2023-04-06T02:53:03;98587.88;;;23.84;32.05
57574;BME280;68988;49.000;21.242;2023-04-06T02:55:28;98576.34;;;23.84;32.01
57574;BME280;68988;49.000;21.242;2023-04-06T02:57:53;98582.28;;;23.86;31.95
57574;BME280;68988;49.000;21.242;2023-04-06T03:00:19;98575.81;;;23.82;32.12
57574;BME280;68988;49.000;21.242;2023-04-06T03:02:44;98574.75;;;23.83;32.05
57574;BME280;68988;49.000;21.242;2023-04-06T03:05:10;98575.00;;;23.81;32.19
57574;BME280;68988;49.000;21.242;2023-04-06T03:07:35;98573.38;;;23.80;32.06
57574;BME280;68988;49.000;21.242;2023-04-06T03:10:01;98585.44;;;23.83;32.17
57574;BME280;68988;49.000;21.242;2023-04-06T03:12:26;98580.63;;;23.80;32.40
57574;BME280;68988;49.000;21.242;2023-04-06T03:14:51;98571.53;;;23.81;31.82
57574;BME280;68988;49.000;21.242;2023-04-06T03:17:17;98570.97;;;23.78;32.13
57574;BME280;68988;49.000;21.242;2023-04-06T03:19:42;98563.78;;;23.79;32.21
57574;BME280;68988;49.000;21.242;2023-04-06T03:22:08;98576.06;;;23.80;31.96
57574;BME280;68988;49.000;21.242;2023-04-06T03:24:33;98569.91;;;23.80;32.16
57574;BME280;68988;49.000;21.242;2023-04-06T03:26:58;98572.31;;;23.81;32.02
57574;BME280;68988;49.000;21.242;2023-04-06T03:29:24;98569.38;;;23.83;31.99
57574;BME280;68988;49.000;21.242;2023-04-06T03:31:49;98569.38;;;23.83;32.08
57574;BME280;68988;49.000;21.242;2023-04-06T03:34:15;98567.50;;;23.83;32.00
57574;BME280;68988;49.000;21.242;2023-04-06T03:36:40;98570.44;;;23.82;31.81
57574;BME280;68988;49.000;21.242;2023-04-06T03:39:05;98563.50;;;23.81;31.97
57574;BME280;68988;49.000;21.242;2023-04-06T03:41:31;98561.88;;;23.80;31.78
57574;BME280;68988;49.000;21.242;2023-04-06T03:43:56;98560.81;;;23.81;32.05
57574;BME280;68988;49.000;21.242;2023-04-06T03:46:22;98551.69;;;23.82;32.14
57574;BME280;68988;49.000;21.242;2023-04-06T03:48:48;98570.19;;;23.83;31.96
57574;BME280;68988;49.000;21.242;2023-04-06T03:51:14;98564.03;;;23.83;31.99
57574;BME280;68988;49.000;21.242;2023-04-06T03:53:39;98568.09;;;23.85;31.95
57574;BME280;68988;49.000;21.242;2023-04-06T03:56:05;98554.09;;;23.83;31.95
57574;BME280;68988;49.000;21.242;2023-04-06T03:58:30;98553.59;;;23.81;32.28
57574;BME280;68988;49.000;21.242;2023-04-06T04:00:56;98551.69;;;23.82;31.79
57574;BME280;68988;49.000;21.242;2023-04-06T04:03:21;98553.31;;;23.83;32.06
57574;BME280;68988;49.000;21.242;2023-04-06T04:05:49;98558.69;;;23.83;31.92
57574;BME280;68988;49.000;21.242;2023-04-06T04:08:15;98550.91;;;23.81;31.90
57574;BME280;68988;49.000;21.242;2023-04-06T04:10:40;98554.44;;;23.87;31.94
57574;BME280;68988;49.000;21.242;2023-04-06T04:13:05;98551.69;;;23.82;31.95
57574;BME280;68988;49.000;21.242;2023-04-06T04:15:31;98559.22;;;23.80;31.96
57574;BME280;68988;49.000;21.242;2023-04-06T04:17:56;98562.41;;;23.76;32.13
57574;BME280;68988;49.000;21.242;2023-04-06T04:20:22;98558.69;;;23.77;32.17
57574;BME280;68988;49.000;21.242;2023-04-06T04:22:47;98561.91;;;23.74;32.14
57574;BME280;68988;49.000;21.242;2023-04-06T04:25:13;98557.06;;;23.76;32.16
57574;BME280;68988;49.000;21.242;2023-04-06T04:27:38;98554.38;;;23.76;32.20
57574;BME280;68988;49.000;21.242;2023-04-06T04:30:05;98560.81;;;23.75;32.13
57574;BME280;68988;49.000;21.242;2023-04-06T04:32:31;98562.16;;;23.78;32.33
57574;BME280;68988;49.000;21.242;2023-04-06T04:34:56;98559.22;;;23.80;32.25
57574;BME280;68988;49.000;21.242;2023-04-06T04:37:22;98553.88;;;23.85;32.07
57574;BME280;68988;49.000;21.242;2023-04-06T04:39:47;98557.38;;;23.85;32.05
57574;BME280;68988;49.000;21.242;2023-04-06T04:42:13;98557.38;;;23.85;32.14
57574;BME280;68988;49.000;21.242;2023-04-06T04:44:38;98549.06;;;23.87;31.96
57574;BME280;68988;49.000;21.242;2023-04-06T04:47:04;98552.81;;;23.91;32.08
57574;BME280;68988;49.000;21.242;2023-04-06T04:49:30;98548.00;;;23.93;32.10
57574;BME280;68988;49.000;21.242;2023-04-06T04:51:55;98545.31;;;23.93;32.04
57574;BME280;68988;49.000;21.242;2023-04-06T04:54:20;98554.41;;;23.97;31.99
57574;BME280;68988;49.000;21.242;2023-04-06T04:56:46;98549.03;;;23.97;32.14
57574;BME280;68988;49.000;21.242;2023-04-06T04:59:11;98547.72;;;24.00;31.96
57574;BME280;68988;49.000;21.242;2023-04-06T05:01:37;98543.72;;;24.02;31.99
57574;BME280;68988;49.000;21.242;2023-04-06T05:04:02;98546.91;;;24.04;31.94
57574;BME280;68988;49.000;21.242;2023-04-06T05:06:27;98549.59;;;24.04;31.98
57574;BME280;68988;49.000;21.242;2023-04-06T05:08:53;98541.56;;;24.04;32.08
57574;BME280;68988;49.000;21.242;2023-04-06T05:11:18;98541.00;;;24.07;32.06
57574;BME280;68988;49.000;21.242;2023-04-06T05:13:43;98543.69;;;24.07;31.89
57574;BME280;68988;49.000;21.242;2023-04-06T05:16:09;98539.13;;;24.08;32.02
57574;BME280;68988;49.000;21.242;2023-04-06T05:18:34;98529.78;;;24.05;31.98
57574;BME280;68988;49.000;21.242;2023-04-06T05:21:00;98537.00;;;24.10;31.90
57574;BME280;68988;49.000;21.242;2023-04-06T05:23:25;98538.06;;;24.09;32.15
57574;BME280;68988;49.000;21.242;2023-04-06T05:25:51;98533.75;;;24.08;31.92
57574;BME280;68988;49.000;21.242;2023-04-06T05:28:17;98527.63;;;24.07;32.09
57574;BME280;68988;49.000;21.242;2023-04-06T05:30:44;98530.28;;;24.07;31.98
57574;BME280;68988;49.000;21.242;2023-04-06T05:33:10;98531.09;;;24.08;31.99
57574;BME280;68988;49.000;21.242;2023-04-06T05:35:36;98530.03;;;24.09;32.04
57574;BME280;68988;49.000;21.242;2023-04-06T05:38:01;98533.50;;;24.09;32.00
57574;BME280;68988;49.000;21.242;2023-04-06T05:40:27;98528.69;;;24.06;31.99
57574;BME280;68988;49.000;21.242;2023-04-06T05:42:52;98524.41;;;24.05;32.09
57574;BME280;68988;49.000;21.242;2023-04-06T05:45:19;98529.78;;;24.05;32.00
57574;BME280;68988;49.000;21.242;2023-04-06T05:47:45;98521.75;;;24.05;32.00
57574;BME280;68988;49.000;21.242;2023-04-06T05:50:11;98528.69;;;24.06;31.93
57574;BME280;68988;49.000;21.242;2023-04-06T05:52:37;98508.06;;;24.02;32.07
57574;BME280;68988;49.000;21.242;2023-04-06T05:55:03;98519.59;;;24.07;32.03
57574;BME280;68988;49.000;21.242;2023-04-06T05:57:29;98522.53;;;24.06;32.12
57574;BME280;68988;49.000;21.242;2023-04-06T05:59:54;98518.53;;;24.08;31.96
57574;BME280;68988;49.000;21.242;2023-04-06T06:02:21;98514.22;;;24.07;32.12
57574;BME280;68988;49.000;21.242;2023-04-06T06:04:46;98514.50;;;24.06;32.08
57574;BME280;68988;49.000;21.242;2023-04-06T06:07:11;98516.09;;;24.07;32.15
57574;BME280;68988;49.000;21.242;2023-04-06T06:09:37;98520.66;;;24.06;31.99
57574;BME280;68988;49.000;21.242;2023-04-06T06:12:02;98514.22;;;24.07;32.09
57574;BME280;68988;49.000;21.242;2023-04-06T06:14:28;98506.19;;;24.07;31.92
57574;BME280;68988;49.000;21.242;2023-04-06T06:16:54;98515.56;;;24.10;32.00
57574;BME280;68988;49.000;21.242;2023-04-06T06:19:19;98522.25;;;24.07;32.03
57574;BME280;68988;49.000;21.242;2023-04-06T06:21:44;98517.44;;;24.04;31.96
57574;BME280;68988;49.000;21.242;2023-04-06T06:24:10;98517.97;;;24.01;32.04
57574;BME280;68988;49.000;21.242;2023-04-06T06:26:35;98519.59;;;24.02;32.12
57574;BME280;68988;49.000;21.242;2023-04-06T06:29:02;98517.72;;;24.03;32.08
57574;BME280;68988;49.000;21.242;2023-04-06T06:31:28;98519.59;;;24.02;32.01
57574;BME280;68988;49.000;21.242;2023-04-06T06:33:53;98516.09;;;24.02;32.16
57574;BME280;68988;49.000;21.242;2023-04-06T06:36:19;98526.53;;;24.03;31.91
57574;BME280;68988;49.000;21.242;2023-04-06T06:38:44;98519.59;;;24.02;32.22
57574;BME280;68988;49.000;21.242;2023-04-06T06:41:10;98520.66;;;24.06;31.98
57574;BME280;68988;49.000;21.242;2023-04-06T06:43:36;98513.44;;;24.07;32.16
57574;BME280;68988;49.000;21.242;2023-04-06T06:46:01;98516.63;;;24.09;31.98
57574;BME280;68988;49.000;21.242;2023-04-06T06:48:27;98521.72;;;24.10;31.97
57574;BME280;68988;49.000;21.242;2023-04-06T06:50:52;98514.75;;;24.09;31.95
57574;BME280;68988;49.000;21.242;2023-04-06T06:53:18;98520.66;;;24.11;31.94
57574;BME280;68988;49.000;21.242;2023-04-06T06:55:43;98524.13;;;24.12;31.97
57574;BME280;68988;49.000;21.242;2023-04-06T06:58:11;98511.78;;;24.11;31.98
57574;BME280;68988;49.000;21.242;2023-04-06T07:00:37;98521.72;;;24.10;31.95
57574;BME280;68988;49.000;21.242;2023-04-06T07:03:02;98513.69;;;24.10;32.03
57574;BME280;68988;49.000;21.242;2023-04-06T07:05:28;98504.31;;;24.13;31.90
57574;BME280;68988;49.000;21.242;2023-04-06T07:07:54;98516.63;;;24.14;32.08
57574;BME280;68988;49.000;21.242;2023-04-06T07:10:19;98509.94;;;24.11;32.16
57574;BME280;68988;49.000;21.242;2023-04-06T07:12:45;98511.53;;;24.12;32.13
57574;BME280;68988;49.000;21.242;2023-04-06T07:15:11;98507.00;;;24.13;32.20
57574;BME280;68988;49.000;21.242;2023-04-06T07:17:36;98508.84;;;24.12;32.35
57574;BME280;68988;49.000;21.242;2023-04-06T07:20:02;98505.09;;;24.13;32.28
57574;BME280;68988;49.000;21.242;2023-04-06T07:22:27;98506.72;;;24.15;32.64
57574;BME280;68988;49.000;21.242;2023-04-06T07:24:53;98503.78;;;24.16;32.59
57574;BME280;68988;49.000;21.242;2023-04-06T07:27:18;98505.63;;;24.16;32.71
57574;BME280;68988;49.000;21.242;2023-04-06T07:29:44;98500.81;;;24.18;32.74
57574;BME280;68988;49.000;21.242;2023-04-06T07:32:10;98510.44;;;24.19;32.79
57574;BME280;68988;49.000;21.242;2023-04-06T07:34:35;98500.81;;;24.18;33.00
57574;BME280;68988;49.000;21.242;2023-04-06T07:37:00;98506.97;;;24.18;33.05
57574;BME280;68988;49.000;21.242;2023-04-06T07:39:26;98499.72;;;24.19;33.13
57574;BME280;68988;49.000;21.242;2023-04-06T07:41:52;98493.06;;;24.16;33.24
57574;BME280;68988;49.000;21.242;2023-04-06T07:44:17;98500.00;;;24.22;33.19
57574;BME280;68988;49.000;21.242;2023-04-06T07:46:43;98494.66;;;24.22;33.17
57574;BME280;68988;49.000;21.242;2023-04-06T07:49:08;98497.31;;;24.22;33.33
57574;BME280;68988;49.000;21.242;2023-04-06T07:51:38;98492.75;;;24.23;33.34
57574;BME280;68988;49.000;21.242;2023-04-06T07:54:03;98481.25;;;24.22;33.43
57574;BME280;68988;49.000;21.242;2023-04-06T07:56:29;98491.97;;;24.22;33.58
57574;BME280;68988;49.000;21.242;2023-04-06T07:58:54;98492.75;;;24.23;33.43
57574;BME280;68988;49.000;21.242;2023-04-06T08:01:22;98493.53;;;24.23;33.60
57574;BME280;68988;49.000;21.242;2023-04-06T08:03:48;98486.84;;;24.26;33.72
57574;BME280;68988;49.000;21.242;2023-04-06T08:06:14;98490.59;;;24.25;33.58
57574;BME280;68988;49.000;21.242;2023-04-06T08:08:39;98485.25;;;24.25;33.52
57574;BME280;68988;49.000;21.242;2023-04-06T08:11:05;98485.50;;;24.23;33.51
57574;BME280;68988;49.000;21.242;2023-04-06T08:13:30;98480.44;;;24.22;33.50
57574;BME280;68988;49.000;21.242;2023-04-06T08:15:56;98487.38;;;24.28;33.38
57574;BME280;68988;49.000;21.242;2023-04-06T08:18:22;98481.50;;;24.26;33.41
57574;BME280;68988;49.000;21.242;2023-04-06T08:20:47;98482.56;;;24.30;33.36
57574;BME280;68988;49.000;21.242;2023-04-06T08:23:14;98482.56;;;24.30;33.17
57574;BME280;68988;49.000;21.242;2023-04-06T08:25:40;98479.34;;;24.28;33.14
57574;BME280;68988;49.000;21.242;2023-04-06T08:28:07;98484.69;;;24.28;33.33
57574;BME280;68988;49.000;21.242;2023-04-06T08:30:33;98490.06;;;24.28;33.54
57574;BME280;68988;49.000;21.242;2023-04-06T08:32:59;98478.28;;;24.29;33.14
57574;BME280;68988;49.000;21.242;2023-04-06T08:35:25;98478.53;;;24.27;33.30
57574;BME280;68988;49.000;21.242;2023-04-06T08:37:51;98474.78;;;24.28;33.19
57574;BME280;68988;49.000;21.242;2023-04-06T08:40:16;98470.22;;;24.29;33.42
57574;BME280;68988;49.000;21.242;2023-04-06T08:42:45;98471.84;;;24.30;33.36
57574;BME280;68988;49.000;21.242;2023-04-06T08:45:12;98469.44;;;24.28;33.27
57574;BME280;68988;49.000;21.242;2023-04-06T08:47:39;98470.47;;;24.33;33.31
57574;BME280;68988;49.000;21.242;2023-04-06T08:50:05;98465.13;;;24.33;33.54
57574;BME280;68988;49.000;21.242;2023-04-06T08:52:32;98465.13;;;24.33;33.64
57574;BME280;68988;49.000;21.242;2023-04-06T08:54:58;98456.00;;;24.34;33.46
57574;BME280;68988;49.000;21.242;2023-04-06T08:57:24;98460.03;;;24.36;33.36
57574;BME280;68988;49.000;21.242;2023-04-06T08:59:51;98443.13;;;24.36;33.48
57574;BME280;68988;49.000;21.242;2023-04-06T09:02:18;98447.69;;;24.35;33.46
57574;BME280;68988;49.000;21.242;2023-04-06T09:04:52;98444.47;;;24.38;33.55
57574;BME280;68988;49.000;21.242;2023-04-06T09:07:18;98442.34;;;24.35;33.62
57574;BME280;68988;49.000;21.242;2023-04-06T09:09:44;98438.31;;;24.38;33.58
57574;BME280;68988;49.000;21.242;2023-04-06T09:12:29;98428.34;;;24.43;33.46
57574;BME280;68988;49.000;21.242;2023-04-06T09:14:56;98427.31;;;24.39;33.72
57574;BME280;68988;49.000;21.242;2023-04-06T09:17:22;98427.31;;;24.39;33.50
57574;BME280;68988;49.000;21.242;2023-04-06T09:19:48;98428.13;;;24.40;33.73
57574;BME280;68988;49.000;21.242;2023-04-06T09:22:14;98429.72;;;24.41;33.73
57574;BME280;68988;49.000;21.242;2023-04-06T09:24:50;98442.84;;;24.42;33.72
57574;BME280;68988;49.000;21.242;2023-04-06T09:27:16;98440.97;;;24.43;33.80
57574;BME280;68988;49.000;21.242;2023-04-06T09:29:44;98432.13;;;24.42;33.77
57574;BME280;68988;49.000;21.242;2023-04-06T09:32:11;98437.50;;;24.42;33.80
57574;BME280;68988;49.000;21.242;2023-04-06T09:34:38;98435.34;;;24.44;33.80
57574;BME280;68988;49.000;21.242;2023-04-06T09:37:13;98441.22;;;24.46;33.67
57574;BME280;68988;49.000;21.242;2023-04-06T09:39:39;98440.69;;;24.44;33.78
57574;BME280;68988;49.000;21.242;2023-04-06T09:42:04;98440.13;;;24.47;33.90
57574;BME280;68988;49.000;21.242;2023-04-06T09:44:30;98436.13;;;24.45;33.98
57574;BME280;68988;49.000;21.242;2023-04-06T09:46:55;98430.50;;;24.46;33.70
57574;BME280;68988;49.000;21.242;2023-04-06T09:49:22;98439.06;;;24.48;33.26
57574;BME280;68988;49.000;21.242;2023-04-06T09:51:54;98435.31;;;24.49;33.71
57574;BME280;68988;49.000;21.242;2023-04-06T09:54:22;98434.50;;;24.49;33.77
57574;BME280;68988;49.000;21.242;2023-04-06T10:01:58;98446.84;;;24.50;33.86
57574;BME280;68988;49.000;21.242;2023-04-06T10:07:05;98420.03;;;24.45;33.80
57574;BME280;68988;49.000;21.242;2023-04-06T10:09:32;98419.22;;;24.49;33.94
57574;BME280;68988;49.000;21.242;2023-04-06T10:12:10;98415.19;;;24.52;33.73
57574;BME280;68988;49.000;21.242;2023-04-06T10:14:36;98421.91;;;24.49;33.71
57574;BME280;68988;49.000;21.242;2023-04-06T10:17:04;98418.94;;;24.51;33.71
57574;BME280;68988;49.000;21.242;2023-04-06T10:19:37;98418.16;;;24.51;33.70
57574;BME280;68988;49.000;21.242;2023-04-06T10:22:06;98414.94;;;24.48;33.76
57574;BME280;68988;49.000;21.242;2023-04-06T10:24:33;98412.00;;;24.50;33.82
57574;BME280;68988;49.000;21.242;2023-04-06T10:27:06;98412.78;;;24.51;33.75
57574;BME280;68988;49.000;21.242;2023-04-06T10:29:45;98415.97;;;24.53;33.73
57574;BME280;68988;49.000;21.242;2023-04-06T10:32:12;98408.50;;;24.49;33.86
57574;BME280;68988;49.000;21.242;2023-04-06T10:34:37;98413.84;;;24.49;33.82
57574;BME280;68988;49.000;21.242;2023-04-06T10:37:16;98413.03;;;24.54;33.75
57574;BME280;68988;49.000;21.242;2023-04-06T10:39:52;98403.69;;;24.52;33.25
57574;BME280;68988;49.000;21.242;2023-04-06T10:42:36;98405.81;;;24.49;32.86
57574;BME280;68988;49.000;21.242;2023-04-06T10:45:05;98396.19;;;24.43;33.05
57574;BME280;68988;49.000;21.242;2023-04-06T10:47:39;98401.56;;;24.43;33.13
57574;BME280;68988;49.000;21.242;2023-04-06T10:50:05;98396.19;;;24.43;33.17
57574;BME280;68988;49.000;21.242;2023-04-06T10:52:31;98396.19;;;24.43;33.14
57574;BME280;68988;49.000;21.242;2023-04-06T10:54:56;98394.84;;;24.46;33.14
57574;BME280;68988;49.000;21.242;2023-04-06T10:57:29;98390.84;;;24.43;33.05
57574;BME280;68988;49.000;21.242;2023-04-06T10:59:55;98405.06;;;24.44;33.13
57574;BME280;68988;49.000;21.242;2023-04-06T11:02:21;98392.47;;;24.39;32.96
57574;BME280;68988;49.000;21.242;2023-04-06T11:04:56;98405.03;;;24.49;33.08
57574;BME280;68988;49.000;21.242;2023-04-06T11:07:23;98405.56;;;24.46;33.10
57574;BME280;68988;49.000;21.242;2023-04-06T11:09:50;98402.91;;;24.46;33.23
57574;BME280;68988;49.000;21.242;2023-04-06T11:12:28;98394.03;;;24.51;33.07
57574;BME280;68988;49.000;21.242;2023-04-06T11:15:00;98400.44;;;24.49;33.26
57574;BME280;68988;49.000;21.242;2023-04-06T11:17:36;98398.88;;;24.48;33.14
57574;BME280;68988;49.000;21.242;2023-04-06T11:20:03;98396.75;;;24.45;33.26
57574;BME280;68988;49.000;21.242;2023-04-06T11:22:30;98386.28;;;24.44;32.47
57574;BME280;68988;49.000;21.242;2023-04-06T11:25:05;98380.63;;;24.51;32.01
57574;BME280;68988;49.000;21.242;2023-04-06T11:27:32;98389.50;;;24.46;32.40
57574;BME280;68988;49.000;21.242;2023-04-06T11:30:02;98395.66;;;24.46;32.35
57574;BME280;68988;49.000;21.242;2023-04-06T11:32:27;98386.56;;;24.42;32.54
57574;BME280;68988;49.000;21.242;2023-04-06T11:34:53;98384.69;;;24.43;32.63
57574;BME280;68988;49.000;21.242;2023-04-06T11:37:19;98388.16;;;24.43;32.51
57574;BME280;68988;49.000;21.242;2023-04-06T11:39:53;98390.00;;;24.48;32.50
57574;BME280;68988;49.000;21.242;2023-04-06T11:42:24;98385.19;;;24.45;32.50
57574;BME280;68988;49.000;21.242;2023-04-06T11:44:59;98380.63;;;24.51;32.69
57574;BME280;68988;49.000;21.242;2023-04-06T11:47:32;98391.91;;;24.47;32.72
57574;BME280;68988;49.000;21.242;2023-04-06T11:50:13;98394.03;;;24.51;32.54
57574;BME280;68988;49.000;21.242;2023-04-06T11:52:42;98381.97;;;24.48;32.58
57574;BME280;68988;49.000;21.242;2023-04-06T11:55:18;98387.59;;;24.52;32.50
57574;BME280;68988;49.000;21.242;2023-04-06T11:57:44;98391.38;;;24.45;32.57
57574;BME280;68988;49.000;21.242;2023-04-06T12:00:10;98383.34;;;24.45;32.77
57574;BME280;68988;49.000;21.242;2023-04-06T12:02:39;98383.84;;;24.47;32.69
57574;BME280;68988;49.000;21.242;2023-04-06T12:05:05;98383.34;;;24.45;32.58
57574;BME280;68988;49.000;21.242;2023-04-06T12:07:32;98384.13;;;24.46;32.56
57574;BME280;68988;49.000;21.242;2023-04-06T12:09:58;98378.78;;;24.46;32.48
57574;BME280;68988;49.000;21.242;2023-04-06T12:12:24;98372.63;;;24.45;32.71
57574;BME280;68988;49.000;21.242;2023-04-06T12:14:50;98371.78;;;24.45;32.56
57574;BME280;68988;49.000;21.242;2023-04-06T12:17:16;98377.97;;;24.45;32.64
57574;BME280;68988;49.000;21.242;2023-04-06T12:19:41;98367.25;;;24.45;32.69
57574;BME280;68988;49.000;21.242;2023-04-06T12:22:06;98375.31;;;24.45;32.69
57574;BME280;68988;49.000;21.242;2023-04-06T12:24:32;98379.03;;;24.44;32.61
57574;BME280;68988;49.000;21.242;2023-04-06T12:26:57;98371.00;;;24.44;32.54
57574;BME280;68988;49.000;21.242;2023-04-06T12:29:24;98361.91;;;24.45;32.78
57574;BME280;68988;49.000;21.242;2023-04-06T12:31:50;98365.66;;;24.44;32.61
57574;BME280;68988;49.000;21.242;2023-04-06T12:34:16;98371.78;;;24.45;32.71
57574;BME280;68988;49.000;21.242;2023-04-06T12:36:41;98369.94;;;24.45;32.56
57574;BME280;68988;49.000;21.242;2023-04-06T12:39:07;98362.19;;;24.44;32.64
57574;BME280;68988;49.000;21.242;2023-04-06T12:41:32;98354.13;;;24.44;32.44
57574;BME280;68988;49.000;21.242;2023-04-06T12:43:58;98360.28;;;24.44;32.50
57574;BME280;68988;49.000;21.242;2023-04-06T12:46:24;98352.25;;;24.44;32.53
57574;BME280;68988;49.000;21.242;2023-04-06T12:48:51;98352.53;;;24.43;32.65
57574;BME280;68988;49.000;21.242;2023-04-06T12:51:18;98354.94;;;24.44;32.46
57574;BME280;68988;49.000;21.242;2023-04-06T12:53:44;98352.75;;;24.46;32.53